Time,TemperatureF,DewpointF,PressureIn,WindDirection,WindDirectionDegrees,WindSpeedMPH,WindSpeedGustMPH,Humidity,HourlyPrecipIn,Conditions,Clouds,dailyrainin,SolarRadiationWatts/m^2,SoftwareType,DateUTC
2013-05-03 00:00:00,49.0,36.5,30.43,North,0,0.0,4.0,62,0.00,,,0.00,0000,Weather View 32 v70,2013-05-03 04:00:00,
2013-05-03 00:05:00,48.9,36.8,30.43,North,0,0.0,4.0,63,0.00,,,0.00,0000,Weather View 32 v70,2013-05-03 04:05:00,
2013-05-03 00:10:00,48.9,37.2,30.43,NE,45,0.0,4.0,64,0.00,,,0.00,0000,Weather View 32 v70,2013-05-03 04:10:00,
2013-05-03 00:15:00,48.7,36.6,30.43,North,0,0.0,4.0,63,0.00,,,0.00,0008,Weather View 32 v70,2013-05-03 04:15:00,
2013-05-03 00:20:00,48.6,36.9,30.43,East,90,0.0,4.0,64,0.00,,,0.00,0000,Weather View 32 v70,2013-05-03 04:20:00,
2013-05-03 00:25:00,48.3,36.3,30.43,North,0,0.0,4.0,63,0.00,,,0.00,0008,Weather View 32 v70,2013-05-03 04:25:00,
2013-05-03 00:30:00,48.1,36.5,30.43,North,0,0.0,4.0,64,0.00,,,0.00,0008,Weather View 32 v70,2013-05-03 04:30:00,
2013-05-03 00:35:00,47.9,36.3,30.42,ENE,68,0.0,6.0,64,0.00,,,0.00,0008,Weather View 32 v70,2013-05-03 04:35:00,
2013-05-03 00:40:00,47.7,36.1,30.43,North,0,0.0,6.0,64,0.00,,,0.00,0016,Weather View 32 v70,2013-05-03 04:40:00,
2013-05-03 00:50:00,47.2,36.0,30.43,North,0,0.0,6.0,65,0.00,,,0.00,0000,Weather View 32 v70,2013-05-03 04:50:00,
2013-05-03 00:55:00,47.0,35.8,30.43,NW,315,0.0,6.0,65,0.00,,,0.00,0000,Weather View 32 v70,2013-05-03 04:55:00,
2013-05-03 01:05:00,46.5,35.4,30.42,NNW,338,0.0,6.0,65,0.00,,,0.00,0000,Weather View 32 v70,2013-05-03 05:05:00,
2013-05-03 01:15:00,46.0,34.8,30.42,NNE,23,0.0,6.0,65,0.00,,,0.00,0000,Weather View 32 v70,2013-05-03 05:15:00,
2013-05-03 01:20:00,45.5,34.4,30.42,North,0,0.0,6.0,65,0.00,,,0.00,0000,Weather View 32 v70,2013-05-03 05:20:00,
2013-05-03 01:25:00,45.3,34.6,30.42,North,0,0.0,6.0,66,0.00,,,0.00,0000,Weather View 32 v70,2013-05-03 05:25:00,
2013-05-03 01:35:00,45.3,34.6,30.42,North,0,0.0,5.0,66,0.00,,,0.00,0000,Weather View 32 v70,2013-05-03 05:35:00,
2013-05-03 01:45:00,45.3,34.6,30.42,North,0,0.0,4.0,66,0.00,,,0.00,0000,Weather View 32 v70,2013-05-03 05:45:00,
2013-05-03 01:50:00,45.1,34.8,30.42,North,0,0.0,4.0,67,0.00,,,0.00,0000,Weather View 32 v70,2013-05-03 05:50:00,
2013-05-03 02:00:00,44.9,34.5,30.41,NNE,23,0.0,4.0,67,0.00,,,0.00,0000,Weather View 32 v70,2013-05-03 06:00:00,
2013-05-03 02:05:00,44.9,34.5,30.41,NNE,23,1.0,4.0,67,0.00,,,0.00,0000,Weather View 32 v70,2013-05-03 06:05:00,
2013-05-03 02:15:00,44.7,34.4,30.41,NNE,23,0.0,5.0,67,0.00,,,0.00,0008,Weather View 32 v70,2013-05-03 06:15:00,
2013-05-03 02:20:00,44.5,34.2,30.41,NNW,338,0.0,5.0,67,0.00,,,0.00,0000,Weather View 32 v70,2013-05-03 06:20:00,
2013-05-03 02:25:00,44.4,34.1,30.41,North,0,0.0,5.0,67,0.00,,,0.00,0008,Weather View 32 v70,2013-05-03 06:25:00,
2013-05-03 02:35:00,44.3,34.0,30.42,North,0,0.0,5.0,67,0.00,,,0.00,0000,Weather View 32 v70,2013-05-03 06:35:00,
2013-05-03 02:45:00,44.0,34.1,30.42,North,0,0.0,5.0,68,0.00,,,0.00,0000,Weather View 32 v70,2013-05-03 06:45:00,
2013-05-03 02:50:00,43.7,33.8,30.42,North,0,0.0,5.0,68,0.00,,,0.00,0000,Weather View 32 v70,2013-05-03 06:50:00,
2013-05-03 03:00:00,43.5,34.0,30.41,NNW,338,0.0,5.0,69,0.00,,,0.00,0000,Weather View 32 v70,2013-05-03 07:00:00,
2013-05-03 03:05:00,43.3,33.8,30.41,North,0,0.0,5.0,69,0.00,,,0.00,0000,Weather View 32 v70,2013-05-03 07:05:00,
2013-05-03 03:15:00,42.6,33.1,30.41,North,0,0.0,4.0,69,0.00,,,0.00,0000,Weather View 32 v70,2013-05-03 07:15:00,
2013-05-03 03:25:00,42.2,33.1,30.41,NNW,338,0.0,4.0,70,0.00,,,0.00,0000,Weather View 32 v70,2013-05-03 07:25:00,
2013-05-03 03:35:00,41.8,33.4,30.42,North,0,0.0,4.0,72,0.00,,,0.00,0000,Weather View 32 v70,2013-05-03 07:35:00,
2013-05-03 03:40:00,41.7,33.3,30.42,North,0,0.0,4.0,72,0.00,,,0.00,0000,Weather View 32 v70,2013-05-03 07:40:00,
2013-05-03 03:50:00,41.5,33.5,30.42,North,0,0.0,3.0,73,0.00,,,0.00,0008,Weather View 32 v70,2013-05-03 07:50:00,
2013-05-03 03:55:00,41.6,33.9,30.42,NNW,338,0.0,3.0,74,0.00,,,0.00,0000,Weather View 32 v70,2013-05-03 07:55:00,
2013-05-03 04:05:00,41.5,34.1,30.42,NNE,23,0.0,3.0,75,0.00,,,0.00,0000,Weather View 32 v70,2013-05-03 08:05:00,
2013-05-03 04:10:00,41.4,33.7,30.42,NNW,338,0.0,3.0,74,0.00,,,0.00,0000,Weather View 32 v70,2013-05-03 08:10:00,
2013-05-03 04:15:00,41.4,34.0,30.42,North,0,0.0,3.0,75,0.00,,,0.00,0000,Weather View 32 v70,2013-05-03 08:15:00,
2013-05-03 04:20:00,41.4,34.4,30.42,North,0,0.0,3.0,76,0.00,,,0.00,0000,Weather View 32 v70,2013-05-03 08:20:00,
2013-05-03 04:25:00,41.7,34.7,30.42,North,0,0.0,3.0,76,0.00,,,0.00,0000,Weather View 32 v70,2013-05-03 08:25:00,
2013-05-03 04:35:00,42.6,35.6,30.43,North,0,0.0,2.0,76,0.00,,,0.00,0000,Weather View 32 v70,2013-05-03 08:35:00,
2013-05-03 04:40:00,42.9,35.9,30.43,NNW,338,0.0,2.0,76,0.00,,,0.00,0000,Weather View 32 v70,2013-05-03 08:40:00,
2013-05-03 04:50:00,43.3,35.5,30.43,NNW,338,0.0,3.0,74,0.00,,,0.00,0000,Weather View 32 v70,2013-05-03 08:50:00,
2013-05-03 05:00:00,43.5,36.1,30.43,NNW,338,0.0,8.0,75,0.00,,,0.00,0000,Weather View 32 v70,2013-05-03 09:00:00,
2013-05-03 05:10:00,43.7,36.3,30.43,NNW,338,0.0,8.0,75,0.00,,,0.00,0000,Weather View 32 v70,2013-05-03 09:10:00,
2013-05-03 05:20:00,43.7,36.3,30.43,NNE,23,0.0,8.0,75,0.00,,,0.00,0008,Weather View 32 v70,2013-05-03 09:20:00,
2013-05-03 05:25:00,43.8,36.4,30.44,North,0,0.0,8.0,75,0.00,,,0.00,0000,Weather View 32 v70,2013-05-03 09:25:00,
2013-05-03 05:30:00,43.7,36.3,30.44,North,0,0.0,8.0,75,0.00,,,0.00,0000,Weather View 32 v70,2013-05-03 09:30:00,
2013-05-03 05:38:00,43.6,36.2,30.45,NNE,23,0.0,8.0,75,0.00,,,0.00,0000,Weather View 32 v70,2013-05-03 09:38:00,
2013-05-03 05:45:00,43.2,36.1,30.45,NNW,338,0.0,8.0,76,0.00,,,0.00,0000,Weather View 32 v70,2013-05-03 09:45:00,
2013-05-03 05:50:00,42.8,35.8,30.45,NNW,338,0.0,8.0,76,0.00,,,0.00,0008,Weather View 32 v70,2013-05-03 09:50:00,
2013-05-03 05:55:00,42.8,36.1,30.45,North,0,0.0,8.0,77,0.00,,,0.00,0008,Weather View 32 v70,2013-05-03 09:55:00,
2013-05-03 06:05:00,42.6,36.2,30.45,NNW,338,1.0,4.0,78,0.00,,,0.00,0000,Weather View 32 v70,2013-05-03 10:05:00,
2013-05-03 06:15:00,42.6,36.2,30.46,North,0,0.0,3.0,78,0.00,,,0.00,0008,Weather View 32 v70,2013-05-03 10:15:00,
2013-05-03 06:20:00,42.8,36.8,30.46,NNW,338,1.0,6.0,79,0.00,,,0.00,0008,Weather View 32 v70,2013-05-03 10:20:00,
2013-05-03 06:25:00,42.9,36.5,30.46,NNE,23,0.0,11.0,78,0.00,,,0.00,0008,Weather View 32 v70,2013-05-03 10:25:00,
2013-05-03 06:30:00,43.1,36.7,30.46,NW,315,0.0,11.0,78,0.00,,,0.00,0016,Weather View 32 v70,2013-05-03 10:30:00,
2013-05-03 06:35:00,42.9,36.5,30.46,NNE,23,0.0,11.0,78,0.00,,,0.00,0032,Weather View 32 v70,2013-05-03 10:35:00,
2013-05-03 06:45:00,43.3,36.9,30.46,North,0,0.0,11.0,78,0.00,,,0.00,0064,Weather View 32 v70,2013-05-03 10:45:00,
2013-05-03 06:55:00,44.0,37.5,30.46,North,0,0.0,11.0,78,0.00,,,0.00,0136,Weather View 32 v70,2013-05-03 10:55:00,
2013-05-03 07:00:00,44.3,37.5,30.46,NNW,338,0.0,11.0,77,0.00,,,0.00,0152,Weather View 32 v70,2013-05-03 11:00:00,
2013-05-03 07:10:00,45.0,37.9,30.46,NNE,23,0.0,11.0,76,0.00,,,0.00,0200,Weather View 32 v70,2013-05-03 11:10:00,
2013-05-03 07:15:00,45.6,38.5,30.47,North,0,0.0,11.0,76,0.00,,,0.00,0208,Weather View 32 v70,2013-05-03 11:15:00,
2013-05-03 07:20:00,46.0,38.5,30.47,NNE,23,0.0,11.0,75,0.00,,,0.00,0192,Weather View 32 v70,2013-05-03 11:20:00,
2013-05-03 07:25:00,46.3,38.5,30.47,North,0,0.0,9.0,74,0.00,,,0.00,0216,Weather View 32 v70,2013-05-03 11:25:00,
2013-05-03 07:30:00,46.8,38.6,30.47,North,0,0.0,9.0,73,0.00,,,0.00,0264,Weather View 32 v70,2013-05-03 11:30:00,
2013-05-03 07:39:00,47.1,38.9,30.47,North,0,4.0,10.0,73,0.00,,,0.00,0264,Weather View 32 v70,2013-05-03 11:39:00,
2013-05-03 07:45:00,48.1,38.8,30.47,NNW,338,0.0,14.0,70,0.00,,,0.00,0288,Weather View 32 v70,2013-05-03 11:45:00,
2013-05-03 07:55:00,49.1,39.0,30.46,North,0,3.0,14.0,68,0.00,,,0.00,0320,Weather View 32 v70,2013-05-03 11:55:00,
2013-05-03 08:05:00,49.7,39.2,30.47,ENE,68,1.0,14.0,67,0.00,,,0.00,0336,Weather View 32 v70,2013-05-03 12:05:00,
2013-05-03 08:10:00,50.0,39.1,30.47,North,0,1.0,14.0,66,0.00,,,0.00,0360,Weather View 32 v70,2013-05-03 12:10:00,
2013-05-03 08:15:00,50.4,39.0,30.46,NNE,23,2.0,14.0,65,0.00,,,0.00,0176,Weather View 32 v70,2013-05-03 12:15:00,
2013-05-03 08:20:00,51.6,39.4,30.47,North,0,2.0,14.0,63,0.00,,,0.00,0400,Weather View 32 v70,2013-05-03 12:20:00,
2013-05-03 08:30:00,52.5,38.6,30.47,NW,315,5.0,14.0,59,0.00,,,0.00,0432,Weather View 32 v70,2013-05-03 12:30:00,
2013-05-03 08:35:00,52.7,39.2,30.47,North,0,0.0,14.0,60,0.00,,,0.00,0448,Weather View 32 v70,2013-05-03 12:35:00,
2013-05-03 08:40:00,52.4,38.0,30.47,North,0,1.0,14.0,58,0.00,,,0.00,0440,Weather View 32 v70,2013-05-03 12:40:00,
2013-05-03 08:50:00,54.2,36.9,30.46,NNE,23,3.0,12.0,52,0.00,,,0.00,0480,Weather View 32 v70,2013-05-03 12:50:00,
2013-05-03 09:00:00,54.3,37.5,30.47,North,0,1.0,12.0,53,0.00,,,0.00,0512,Weather View 32 v70,2013-05-03 13:00:00,
2013-05-03 09:10:00,55.0,36.1,30.46,WNW,293,0.0,14.0,49,0.00,,,0.00,0544,Weather View 32 v70,2013-05-03 13:10:00,
2013-05-03 09:15:00,55.0,35.6,30.46,ENE,68,2.0,14.0,48,0.00,,,0.00,0544,Weather View 32 v70,2013-05-03 13:15:00,
2013-05-03 09:25:00,55.0,35.1,30.46,East,90,2.0,14.0,47,0.00,,,0.00,0592,Weather View 32 v70,2013-05-03 13:25:00,
2013-05-03 09:35:00,56.3,36.3,30.46,ENE,68,4.0,14.0,47,0.00,,,0.00,0608,Weather View 32 v70,2013-05-03 13:35:00,
2013-05-03 09:40:00,56.8,37.3,30.46,NE,45,0.0,14.0,48,0.00,,,0.00,0704,Weather View 32 v70,2013-05-03 13:40:00,
2013-05-03 09:50:00,56.9,35.7,30.45,East,90,5.0,14.0,45,0.00,,,0.00,0240,Weather View 32 v70,2013-05-03 13:50:00,
2013-05-03 09:55:00,56.7,36.6,30.45,NE,45,3.0,14.0,47,0.00,,,0.00,0856,Weather View 32 v70,2013-05-03 13:55:00,
2013-05-03 10:05:00,57.7,37.5,30.46,NNE,23,6.0,13.0,47,0.00,,,0.00,0264,Weather View 32 v70,2013-05-03 14:05:00,
2013-05-03 10:15:00,56.4,37.5,30.45,NNE,23,3.0,14.0,49,0.00,,,0.00,0400,Weather View 32 v70,2013-05-03 14:15:00,
2013-05-03 10:20:00,57.3,38.3,30.45,NW,315,0.0,14.0,49,0.00,,,0.00,0424,Weather View 32 v70,2013-05-03 14:20:00,
2013-05-03 10:25:00,56.7,37.7,30.45,NNW,338,6.0,14.0,49,0.00,,,0.00,0536,Weather View 32 v70,2013-05-03 14:25:00,
2013-05-03 10:35:00,58.6,38.4,30.45,ESE,113,1.0,15.0,47,0.00,,,0.00,0608,Weather View 32 v70,2013-05-03 14:35:00,
2013-05-03 10:41:00,58.8,37.5,30.45,NNE,23,4.0,15.0,45,0.00,,,0.00,0840,Weather View 32 v70,2013-05-03 14:41:00,
2013-05-03 10:50:00,58.4,35.9,30.45,NNW,338,11.0,17.0,43,0.00,,,0.00,0896,Weather View 32 v70,2013-05-03 14:50:00,
2013-05-03 10:55:00,58.0,36.8,30.45,ENE,68,0.0,26.0,45,0.00,,,0.00,0816,Weather View 32 v70,2013-05-03 14:55:00,
2013-05-03 11:00:00,59.1,37.2,30.45,NE,45,1.0,26.0,44,0.00,,,0.00,0840,Weather View 32 v70,2013-05-03 15:00:00,
2013-05-03 11:05:00,59.7,37.1,30.45,NNE,23,3.0,26.0,43,0.00,,,0.00,0864,Weather View 32 v70,2013-05-03 15:05:00,
2013-05-03 11:15:00,59.0,37.1,30.45,NE,45,4.0,26.0,44,0.00,,,0.00,0744,Weather View 32 v70,2013-05-03 15:15:00,
2013-05-03 11:20:00,57.9,36.1,30.45,North,0,4.0,26.0,44,0.00,,,0.00,0200,Weather View 32 v70,2013-05-03 15:20:00,
2013-05-03 11:25:00,58.5,37.2,30.44,NNE,23,1.0,26.0,45,0.00,,,0.00,0816,Weather View 32 v70,2013-05-03 15:25:00,
2013-05-03 11:30:00,59.8,38.4,30.43,NNE,23,8.0,26.0,45,0.00,,,0.00,0336,Weather View 32 v70,2013-05-03 15:30:00,
2013-05-03 11:35:00,58.7,37.4,30.44,NNW,338,4.0,26.0,45,0.00,,,0.00,0704,Weather View 32 v70,2013-05-03 15:35:00,
2013-05-03 11:40:00,59.1,37.8,30.43,NW,315,0.0,26.0,45,0.00,,,0.00,0904,Weather View 32 v70,2013-05-03 15:40:00,
2013-05-03 11:45:00,58.6,36.7,30.44,NNE,23,4.0,26.0,44,0.00,,,0.00,0824,Weather View 32 v70,2013-05-03 15:45:00,
2013-05-03 11:55:00,59.5,39.7,30.43,North,0,0.0,26.0,48,0.00,,,0.00,0944,Weather View 32 v70,2013-05-03 15:55:00,
2013-05-03 12:05:00,60.0,39.7,30.43,NE,45,5.0,16.0,47,0.00,,,0.00,0568,Weather View 32 v70,2013-05-03 16:05:00,
2013-05-03 12:10:00,60.9,40.0,30.43,SE,135,2.0,16.0,46,0.00,,,0.00,0864,Weather View 32 v70,2013-05-03 16:10:00,
2013-05-03 12:20:00,61.1,38.3,30.42,NE,45,5.0,17.0,43,0.00,,,0.00,0472,Weather View 32 v70,2013-05-03 16:20:00,
2013-05-03 12:30:00,59.7,38.3,30.42,NE,45,2.0,19.0,45,0.00,,,0.00,0920,Weather View 32 v70,2013-05-03 16:30:00,
2013-05-03 12:35:00,59.0,38.8,30.42,North,0,0.0,19.0,47,0.00,,,0.00,0928,Weather View 32 v70,2013-05-03 16:35:00,
2013-05-03 12:40:00,60.3,39.9,30.42,NNE,23,1.0,19.0,47,0.00,,,0.00,0912,Weather View 32 v70,2013-05-03 16:40:00,
2013-05-03 12:50:00,60.5,40.1,30.42,NE,45,3.0,19.0,47,0.00,,,0.00,0856,Weather View 32 v70,2013-05-03 16:50:00,
2013-05-03 12:55:00,61.2,39.6,30.41,ENE,68,3.0,21.0,45,0.00,,,0.00,0480,Weather View 32 v70,2013-05-03 16:55:00,
2013-05-03 13:00:00,60.8,38.7,30.41,North,0,1.0,21.0,44,0.00,,,0.00,0848,Weather View 32 v70,2013-05-03 17:00:00,
2013-05-03 13:10:00,60.6,40.8,30.41,ESE,113,1.0,21.0,48,0.00,,,0.00,0848,Weather View 32 v70,2013-05-03 17:10:00,
2013-05-03 13:15:00,60.6,38.5,30.41,ENE,68,2.0,30.0,44,0.00,,,0.00,0688,Weather View 32 v70,2013-05-03 17:15:00,
2013-05-03 13:20:00,60.9,38.8,30.41,North,0,0.0,30.0,44,0.00,,,0.00,0800,Weather View 32 v70,2013-05-03 17:20:00,
2013-05-03 13:25:00,60.6,38.5,30.41,East,90,4.0,30.0,44,0.00,,,0.00,0832,Weather View 32 v70,2013-05-03 17:25:00,
2013-05-03 13:30:00,60.5,39.6,30.41,NE,45,4.0,30.0,46,0.00,,,0.00,0832,Weather View 32 v70,2013-05-03 17:30:00,
2013-05-03 13:40:00,60.5,39.0,30.41,NE,45,0.0,30.0,45,0.00,,,0.00,0208,Weather View 32 v70,2013-05-03 17:40:00,
2013-05-03 13:50:00,60.4,40.0,30.40,NNE,23,0.0,30.0,47,0.00,,,0.00,0392,Weather View 32 v70,2013-05-03 17:50:00,
2013-05-03 13:55:00,59.9,39.6,30.41,West,270,4.0,30.0,47,0.00,,,0.00,0472,Weather View 32 v70,2013-05-03 17:55:00,
2013-05-03 14:00:00,60.7,39.8,30.40,NNE,23,5.0,30.0,46,0.00,,,0.00,0728,Weather View 32 v70,2013-05-03 18:00:00,
2013-05-03 14:10:00,60.9,40.5,30.41,NNE,23,9.0,30.0,47,0.00,,,0.00,0400,Weather View 32 v70,2013-05-03 18:10:00,
2013-05-03 14:20:00,60.7,39.8,30.40,ENE,68,2.0,17.0,46,0.00,,,0.00,0568,Weather View 32 v70,2013-05-03 18:20:00,
2013-05-03 14:25:00,60.8,40.4,30.40,ENE,68,2.0,17.0,47,0.00,,,0.00,0240,Weather View 32 v70,2013-05-03 18:25:00,
2013-05-03 14:35:00,61.2,40.7,30.40,NNW,338,4.0,17.0,47,0.00,,,0.00,0752,Weather View 32 v70,2013-05-03 18:35:00,
2013-05-03 14:40:00,61.2,39.6,30.39,East,90,3.0,17.0,45,0.00,,,0.00,0736,Weather View 32 v70,2013-05-03 18:40:00,
2013-05-03 14:50:00,62.9,42.3,30.39,NNE,23,0.0,17.0,47,0.00,,,0.00,0744,Weather View 32 v70,2013-05-03 18:50:00,
2013-05-03 14:55:00,63.0,40.7,30.39,NW,315,3.0,17.0,44,0.00,,,0.00,0704,Weather View 32 v70,2013-05-03 18:55:00,
2013-05-03 15:00:00,62.3,39.5,30.39,ENE,68,2.0,21.0,43,0.00,,,0.00,0688,Weather View 32 v70,2013-05-03 19:00:00,
2013-05-03 15:05:00,62.2,40.5,30.39,East,90,0.0,21.0,45,0.00,,,0.00,0680,Weather View 32 v70,2013-05-03 19:05:00,
2013-05-03 15:15:00,63.1,41.3,30.38,ESE,113,1.0,21.0,45,0.00,,,0.00,0624,Weather View 32 v70,2013-05-03 19:15:00,
2013-05-03 15:25:00,62.9,40.6,30.38,North,0,0.0,21.0,44,0.00,,,0.00,0608,Weather View 32 v70,2013-05-03 19:25:00,
2013-05-03 15:30:00,62.9,40.6,30.38,ESE,113,0.0,21.0,44,0.00,,,0.00,0592,Weather View 32 v70,2013-05-03 19:30:00,
2013-05-03 15:35:00,62.6,39.8,30.38,NE,45,2.0,21.0,43,0.00,,,0.00,0608,Weather View 32 v70,2013-05-03 19:35:00,
2013-05-03 15:40:00,62.5,40.3,30.38,NE,45,3.0,21.0,44,0.00,,,0.00,0600,Weather View 32 v70,2013-05-03 19:40:00,
2013-05-03 15:50:00,62.7,40.5,30.38,North,0,5.0,21.0,44,0.00,,,0.00,0576,Weather View 32 v70,2013-05-03 19:50:00,
2013-05-03 15:55:00,62.9,40.0,30.37,North,0,2.0,21.0,43,0.00,,,0.00,0560,Weather View 32 v70,2013-05-03 19:55:00,
2013-05-03 16:05:00,62.9,40.6,30.37,North,0,8.0,12.0,44,0.00,,,0.00,0520,Weather View 32 v70,2013-05-03 20:05:00,
2013-05-03 16:10:00,63.3,41.0,30.36,ENE,68,1.0,12.0,44,0.00,,,0.00,0512,Weather View 32 v70,2013-05-03 20:10:00,
2013-05-03 16:15:00,63.1,40.2,30.36,North,0,5.0,12.0,43,0.00,,,0.00,0504,Weather View 32 v70,2013-05-03 20:15:00,
2013-05-03 16:20:00,62.6,40.3,30.36,ESE,113,3.0,12.0,44,0.00,,,0.00,0472,Weather View 32 v70,2013-05-03 20:20:00,
2013-05-03 16:25:00,62.9,41.1,30.36,ENE,68,0.0,12.0,45,0.00,,,0.00,0488,Weather View 32 v70,2013-05-03 20:25:00,
2013-05-03 16:30:00,62.4,40.7,30.36,ESE,113,10.0,13.0,45,0.00,,,0.00,0448,Weather View 32 v70,2013-05-03 20:30:00,
2013-05-03 16:40:00,62.1,40.4,30.36,North,0,3.0,13.0,45,0.00,,,0.00,0448,Weather View 32 v70,2013-05-03 20:40:00,
2013-05-03 16:50:00,62.0,40.3,30.36,ENE,68,2.0,13.0,45,0.00,,,0.00,0416,Weather View 32 v70,2013-05-03 20:50:00,
2013-05-03 16:55:00,61.8,41.3,30.36,East,90,0.0,13.0,47,0.00,,,0.00,0232,Weather View 32 v70,2013-05-03 20:55:00,
2013-05-03 17:05:00,61.5,41.0,30.36,NNE,23,0.0,18.0,47,0.00,,,0.00,0248,Weather View 32 v70,2013-05-03 21:05:00,
2013-05-03 17:15:00,60.8,40.4,30.36,North,0,4.0,18.0,47,0.00,,,0.00,0272,Weather View 32 v70,2013-05-03 21:15:00,
2013-05-03 17:20:00,60.8,41.5,30.36,East,90,0.0,18.0,49,0.00,,,0.00,0168,Weather View 32 v70,2013-05-03 21:20:00,
2013-05-03 17:25:00,60.4,40.5,30.36,ENE,68,3.0,18.0,48,0.00,,,0.00,0136,Weather View 32 v70,2013-05-03 21:25:00,
2013-05-03 17:30:00,60.4,41.1,30.36,East,90,1.0,18.0,49,0.00,,,0.00,0192,Weather View 32 v70,2013-05-03 21:30:00,
2013-05-03 17:40:00,59.7,40.5,30.36,ENE,68,3.0,18.0,49,0.00,,,0.00,0248,Weather View 32 v70,2013-05-03 21:40:00,
2013-05-03 17:45:00,59.4,40.7,30.36,ENE,68,0.0,18.0,50,0.00,,,0.00,0240,Weather View 32 v70,2013-05-03 21:45:00,
2013-05-03 17:55:00,59.3,41.1,30.36,ENE,68,3.0,18.0,51,0.00,,,0.00,0120,Weather View 32 v70,2013-05-03 21:55:00,
2013-05-03 18:00:00,58.8,41.2,30.35,NE,45,3.0,13.0,52,0.00,,,0.00,0080,Weather View 32 v70,2013-05-03 22:00:00,
2013-05-03 18:05:00,58.6,41.0,30.35,NE,45,4.0,13.0,52,0.00,,,0.00,0152,Weather View 32 v70,2013-05-03 22:05:00,
2013-05-03 18:15:00,58.4,41.3,30.35,North,0,0.0,13.0,53,0.00,,,0.00,0048,Weather View 32 v70,2013-05-03 22:15:00,
2013-05-03 18:20:00,58.1,41.5,30.35,East,90,0.0,13.0,54,0.00,,,0.00,0064,Weather View 32 v70,2013-05-03 22:20:00,
2013-05-03 18:25:00,57.8,41.2,30.35,NE,45,1.0,12.0,54,0.00,,,0.00,0064,Weather View 32 v70,2013-05-03 22:25:00,
2013-05-03 18:35:00,57.5,40.9,30.35,NNE,23,2.0,12.0,54,0.00,,,0.00,0056,Weather View 32 v70,2013-05-03 22:35:00,
2013-05-03 18:40:00,57.1,41.1,30.35,NNW,338,0.0,12.0,55,0.00,,,0.00,0032,Weather View 32 v70,2013-05-03 22:40:00,
2013-05-03 18:46:00,57.0,41.0,30.35,NE,45,2.0,12.0,55,0.00,,,0.00,0040,Weather View 32 v70,2013-05-03 22:46:00,
2013-05-03 18:55:00,56.7,41.1,30.35,WSW,248,1.0,12.0,56,0.00,,,0.00,0016,Weather View 32 v70,2013-05-03 22:55:00,
2013-05-03 19:05:00,56.1,41.0,30.35,North,0,0.0,12.0,57,0.00,,,0.00,0016,Weather View 32 v70,2013-05-03 23:05:00,
2013-05-03 19:15:00,55.8,40.3,30.35,NNE,23,0.0,12.0,56,0.00,,,0.00,0024,Weather View 32 v70,2013-05-03 23:15:00,
2013-05-03 19:20:00,55.5,40.1,30.36,WNW,293,0.0,9.0,56,0.00,,,0.00,0000,Weather View 32 v70,2013-05-03 23:20:00,
2013-05-03 19:25:00,55.3,40.3,30.36,NNE,23,0.0,9.0,57,0.00,,,0.00,0008,Weather View 32 v70,2013-05-03 23:25:00,
2013-05-03 19:30:00,55.0,39.5,30.36,North,0,0.0,9.0,56,0.00,,,0.00,0016,Weather View 32 v70,2013-05-03 23:30:00,
2013-05-03 19:40:00,54.4,39.9,30.36,North,0,0.0,9.0,58,0.00,,,0.00,0000,Weather View 32 v70,2013-05-03 23:40:00,
2013-05-03 19:45:00,54.1,39.6,30.36,NNE,23,2.0,9.0,58,0.00,,,0.00,0000,Weather View 32 v70,2013-05-03 23:45:00,
2013-05-03 19:55:00,53.6,39.6,30.37,North,0,0.0,9.0,59,0.00,,,0.00,0008,Weather View 32 v70,2013-05-03 23:55:00,
2013-05-03 20:05:00,53.1,39.5,30.36,North,0,0.0,9.0,60,0.00,,,0.00,0008,Weather View 32 v70,2013-05-04 00:05:00,
2013-05-03 20:10:00,52.7,39.6,30.37,North,0,0.0,9.0,61,0.00,,,0.00,0000,Weather View 32 v70,2013-05-04 00:10:00,
2013-05-03 20:15:00,52.5,39.4,30.37,North,0,0.0,9.0,61,0.00,,,0.00,0000,Weather View 32 v70,2013-05-04 00:15:00,
2013-05-03 20:25:00,52.1,39.4,30.37,NNW,338,0.0,9.0,62,0.00,,,0.00,0000,Weather View 32 v70,2013-05-04 00:25:00,
2013-05-03 20:35:00,51.9,39.7,30.37,North,0,0.0,9.0,63,0.00,,,0.00,0000,Weather View 32 v70,2013-05-04 00:35:00,
2013-05-03 20:45:00,51.5,39.7,30.37,NNE,23,0.0,5.0,64,0.00,,,0.00,0000,Weather View 32 v70,2013-05-04 00:45:00,
2013-05-03 20:55:00,51.2,39.8,30.37,NNE,23,0.0,5.0,65,0.00,,,0.00,0000,Weather View 32 v70,2013-05-04 00:55:00,
2013-05-03 21:00:00,50.9,39.6,30.37,North,0,0.0,5.0,65,0.00,,,0.00,0000,Weather View 32 v70,2013-05-04 01:00:00,
2013-05-03 21:05:00,50.7,39.7,30.37,North,0,0.0,5.0,66,0.00,,,0.00,0000,Weather View 32 v70,2013-05-04 01:05:00,
2013-05-03 21:15:00,50.4,39.4,30.38,North,0,0.0,5.0,66,0.00,,,0.00,0000,Weather View 32 v70,2013-05-04 01:15:00,
2013-05-03 21:25:00,50.1,39.6,30.38,North,0,2.0,6.0,67,0.00,,,0.00,0008,Weather View 32 v70,2013-05-04 01:25:00,
2013-05-03 21:30:00,50.0,39.5,30.38,North,0,0.0,6.0,67,0.00,,,0.00,0000,Weather View 32 v70,2013-05-04 01:30:00,
2013-05-03 21:35:00,49.8,38.9,30.38,North,0,0.0,6.0,66,0.00,,,0.00,0000,Weather View 32 v70,2013-05-04 01:35:00,
2013-05-03 21:40:00,49.6,38.3,30.38,North,0,0.0,6.0,65,0.00,,,0.00,0000,Weather View 32 v70,2013-05-04 01:40:00,
2013-05-03 21:47:00,49.4,38.1,30.38,North,0,0.0,6.0,65,0.00,,,0.00,0008,Weather View 32 v70,2013-05-04 01:47:00,
2013-05-03 21:55:00,48.9,37.6,30.37,WNW,293,0.0,6.0,65,0.00,,,0.00,0000,Weather View 32 v70,2013-05-04 01:55:00,
2013-05-03 22:00:00,48.8,37.9,30.37,NNW,338,0.0,6.0,66,0.00,,,0.00,0000,Weather View 32 v70,2013-05-04 02:00:00,
2013-05-03 22:10:00,48.3,37.5,30.37,North,0,0.0,6.0,66,0.00,,,0.00,0000,Weather View 32 v70,2013-05-04 02:10:00,
2013-05-03 22:20:00,48.0,37.2,30.37,North,0,0.0,6.0,66,0.00,,,0.00,0000,Weather View 32 v70,2013-05-04 02:20:00,
2013-05-03 22:25:00,47.8,37.3,30.37,North,0,0.0,6.0,67,0.00,,,0.00,0008,Weather View 32 v70,2013-05-04 02:25:00,
2013-05-03 22:30:00,47.4,37.0,30.37,NNE,23,0.0,6.0,67,0.00,,,0.00,0000,Weather View 32 v70,2013-05-04 02:30:00,
2013-05-03 22:40:00,46.9,36.8,30.36,North,0,0.0,2.0,68,0.00,,,0.00,0000,Weather View 32 v70,2013-05-04 02:40:00,
2013-05-03 22:45:00,46.8,37.1,30.36,North,0,0.0,1.0,69,0.00,,,0.00,0008,Weather View 32 v70,2013-05-04 02:45:00,
2013-05-03 22:50:00,46.7,37.0,30.36,NNW,338,0.0,0.0,69,0.00,,,0.00,0000,Weather View 32 v70,2013-05-04 02:50:00,
2013-05-03 23:00:00,46.2,36.6,30.36,NNW,338,0.0,0.0,69,0.00,,,0.00,0000,Weather View 32 v70,2013-05-04 03:00:00,
2013-05-03 23:05:00,46.1,36.5,30.36,NNW,338,0.0,0.0,69,0.00,,,0.00,0000,Weather View 32 v70,2013-05-04 03:05:00,
2013-05-03 23:10:00,45.9,36.6,30.36,NNW,338,0.0,0.0,70,0.00,,,0.00,0000,Weather View 32 v70,2013-05-04 03:10:00,
2013-05-03 23:20:00,45.6,36.8,30.36,NNW,338,0.0,0.0,71,0.00,,,0.00,0000,Weather View 32 v70,2013-05-04 03:20:00,
2013-05-03 23:25:00,45.5,36.7,30.36,NNW,338,0.0,0.0,71,0.00,,,0.00,0000,Weather View 32 v70,2013-05-04 03:25:00,
2013-05-03 23:35:00,45.2,36.7,30.36,NNW,338,0.0,0.0,72,0.00,,,0.00,0000,Weather View 32 v70,2013-05-04 03:35:00,
2013-05-03 23:40:00,45.0,36.1,30.36,NNW,338,0.0,0.0,71,0.00,,,0.00,0000,Weather View 32 v70,2013-05-04 03:40:00,
2013-05-03 23:45:00,44.9,36.4,30.36,NNW,338,0.0,0.0,72,0.00,,,0.00,0000,Weather View 32 v70,2013-05-04 03:45:00,
2013-05-03 23:50:00,44.6,36.1,30.36,NNW,338,0.0,0.0,72,0.00,,,0.00,0008,Weather View 32 v70,2013-05-04 03:50:00,